Time;durP1;ratioP1;P1;durP2;ratioP2;P2;SDS_P1;SDS_P2;PMS_P1;PMS_P2;Temp;Humidity;BMP_temperature;BMP_pressure;BME280_temperature;BME280_humidity;BME280_pressure;Samples;Min_cycle;Max_cycle;Signal;HPM_P1;HPM_P2
2023/02/06 00:01:50;;;;;;;6.88;3.05;;;-1.40;96.20;;;;;;5042430;28;20059;-67
2023/02/06 00:04:16;;;;;;;6.35;3.40;;;-1.40;95.70;;;;;;5044979;28;20033;-69
2023/02/06 00:06:41;;;;;;;5.95;3.80;;;-1.50;94.80;;;;;;5048698;28;20036;-69
2023/02/06 00:09:07;;;;;;;7.97;4.07;;;-1.40;94.90;;;;;;5042237;28;20074;-67
2023/02/06 00:11:34;;;;;;;13.57;4.45;;;-1.50;95.20;;;;;;5048175;28;20516;-67
2023/02/06 00:14:00;;;;;;;9.90;3.58;;;-1.50;95.50;;;;;;5045067;28;20049;-67
2023/02/06 00:16:28;;;;;;;7.32;3.65;;;-1.40;95.60;;;;;;5045528;28;20043;-67
2023/02/06 00:18:56;;;;;;;10.32;4.05;;;-1.40;95.70;;;;;;5047123;28;20044;-67
2023/02/06 00:21:24;;;;;;;7.28;3.95;;;-1.40;95.70;;;;;;5045982;28;20040;-67
2023/02/06 00:23:52;;;;;;;14.85;5.25;;;-1.50;95.60;;;;;;5045208;28;20405;-67
2023/02/06 00:26:18;;;;;;;8.68;3.85;;;-1.50;95.50;;;;;;5045261;28;20029;-67
2023/02/06 00:28:45;;;;;;;8.63;4.18;;;-1.50;95.20;;;;;;5028596;28;20112;-67
2023/02/06 00:31:11;;;;;;;11.07;4.57;;;-1.50;95.10;;;;;;5043951;28;20036;-67
2023/02/06 00:33:38;;;;;;;8.02;4.03;;;-1.40;95.40;;;;;;5029481;28;20062;-67
2023/02/06 00:36:05;;;;;;;8.57;4.18;;;-1.40;95.30;;;;;;5026439;28;20094;-67
2023/02/06 00:38:31;;;;;;;7.80;4.68;;;-1.40;95.60;;;;;;5031799;28;20098;-67
2023/02/06 00:40:57;;;;;;;6.68;4.00;;;-1.30;95.70;;;;;;5025950;28;20033;-67
2023/02/06 00:43:23;;;;;;;8.05;3.78;;;-1.30;95.70;;;;;;5046126;28;20090;-69
2023/02/06 00:45:56;;;;;;;12.63;5.18;;;-1.30;95.60;;;;;;5028208;28;20154;-67
2023/02/06 00:48:22;;;;;;;9.38;4.88;;;-1.30;95.50;;;;;;5043838;28;20025;-67
2023/02/06 00:50:50;;;;;;;10.68;5.05;;;-1.30;95.40;;;;;;5044779;28;20028;-69
2023/02/06 00:53:16;;;;;;;7.57;4.53;;;-1.30;95.50;;;;;;5031665;28;20036;-69
2023/02/06 00:55:42;;;;;;;7.72;3.75;;;-1.30;95.50;;;;;;5029043;28;20908;-67
2023/02/06 00:58:08;;;;;;;8.63;4.30;;;-1.30;95.50;;;;;;5028119;28;20052;-67
2023/02/06 01:00:34;;;;;;;15.40;5.88;;;-1.20;95.50;;;;;;5031482;28;20059;-69
2023/02/06 01:03:00;;;;;;;16.50;6.55;;;-1.20;94.90;;;;;;5029449;28;20048;-69
2023/02/06 01:05:26;;;;;;;17.05;6.22;;;-1.20;94.20;;;;;;5046010;28;20068;-67
2023/02/06 01:07:52;;;;;;;13.93;6.05;;;-1.20;94.10;;;;;;5031454;28;20025;-66
2023/02/06 01:10:17;;;;;;;11.77;5.20;;;-1.30;94.10;;;;;;5027965;28;20120;-66
2023/02/06 01:12:43;;;;;;;12.27;5.68;;;-1.30;93.30;;;;;;5034509;28;20032;-67
2023/02/06 01:15:13;;;;;;;18.00;5.78;;;-1.40;93.20;;;;;;5029524;28;20032;-67
2023/02/06 01:17:40;;;;;;;11.45;5.68;;;-1.40;93.50;;;;;;5032844;28;20044;-67
2023/02/06 01:20:10;;;;;;;7.68;4.70;;;-1.50;93.90;;;;;;5048860;28;20043;-67
2023/02/06 01:22:36;;;;;;;9.85;4.32;;;-1.50;94.00;;;;;;5052631;28;20036;-67
2023/02/06 01:25:03;;;;;;;7.82;3.92;;;-1.50;94.20;;;;;;5046058;28;20474;-67
2023/02/06 01:27:30;;;;;;;7.22;3.75;;;-1.50;94.00;;;;;;5050336;28;20926;-67
2023/02/06 01:29:57;;;;;;;9.15;4.45;;;-1.50;93.90;;;;;;5033617;28;20885;-67
2023/02/06 01:32:22;;;;;;;7.55;3.90;;;-1.50;94.10;;;;;;5051707;28;20115;-67
2023/02/06 01:34:48;;;;;;;6.50;3.97;;;-1.50;94.40;;;;;;5051311;28;20040;-67
2023/02/06 01:37:14;;;;;;;6.95;4.30;;;-1.50;94.80;;;;;;5050467;28;20535;-67
2023/02/06 01:39:40;;;;;;;10.88;4.35;;;-1.50;94.80;;;;;;5036185;28;20033;-67
2023/02/06 01:42:06;;;;;;;10.55;4.63;;;-1.50;93.60;;;;;;5032513;28;20029;-67
2023/02/06 01:44:32;;;;;;;9.40;4.50;;;-1.50;93.30;;;;;;5034121;28;20817;-67
2023/02/06 01:46:58;;;;;;;6.57;4.30;;;-1.60;93.30;;;;;;5034365;28;20024;-67
2023/02/06 01:49:43;;;;;;;7.95;4.15;;;-1.70;93.50;;;;;;5056913;28;20070;-66
2023/02/06 01:52:14;;;;;;;9.18;3.72;;;-1.80;93.60;;;;;;5049085;28;20394;-67
2023/02/06 01:54:42;;;;;;;8.75;4.20;;;-1.80;93.90;;;;;;5049632;28;20492;-67
2023/02/06 01:57:10;;;;;;;9.15;4.88;;;-1.90;94.20;;;;;;5051780;28;20044;-66
2023/02/06 01:59:41;;;;;;;10.30;4.70;;;-1.80;94.50;;;;;;5032625;28;20033;-66
2023/02/06 02:02:07;;;;;;;8.68;4.30;;;-1.80;94.90;;;;;;5032274;28;20033;-67
2023/02/06 02:04:33;;;;;;;7.40;4.10;;;-1.80;95.30;;;;;;5035397;28;20028;-67
2023/02/06 02:07:07;;;;;;;10.40;4.53;;;-1.80;95.40;;;;;;5031633;28;20140;-67
2023/02/06 02:09:33;;;;;;;6.80;4.07;;;-1.70;95.90;;;;;;5034896;28;20380;-67
2023/02/06 02:11:59;;;;;;;8.02;4.15;;;-1.70;96.00;;;;;;5050836;28;20140;-67
2023/02/06 02:14:25;;;;;;;7.85;3.88;;;-1.70;96.20;;;;;;5030102;28;20029;-67
2023/02/06 02:17:00;;;;;;;6.65;3.65;;;-1.70;96.20;;;;;;5034311;28;20024;-67
2023/02/06 02:20:10;;;;;;;10.02;5.20;;;-1.70;96.30;;;;;;5052629;28;20033;-66
2023/02/06 02:23:03;;;;;;;6.78;4.13;;;-1.60;95.90;;;;;;4992921;28;20056;-66
2023/02/06 02:25:48;;;;;;;7.80;4.60;;;-1.70;95.40;;;;;;5050567;28;20032;-66
2023/02/06 02:28:32;;;;;;;11.27;4.95;;;-1.60;94.60;;;;;;5052415;28;20041;-67
2023/02/06 02:31:18;;;;;;;9.32;4.75;;;-1.70;94.70;;;;;;5016711;28;20451;-67
2023/02/06 02:34:24;;;;;;;8.07;4.57;;;-1.70;94.90;;;;;;5030289;28;20115;-67
2023/02/06 02:36:59;;;;;;;8.23;4.82;;;-1.70;94.90;;;;;;5033374;28;20021;-67
2023/02/06 02:40:00;;;;;;;7.32;4.53;;;-1.70;95.10;;;;;;5030084;28;20025;-67
2023/02/06 02:42:53;;;;;;;9.48;4.15;;;-1.70;95.00;;;;;;5030946;28;20033;-66
2023/02/06 02:45:39;;;;;;;8.07;4.45;;;-1.70;95.10;;;;;;5031521;28;20043;-66
2023/02/06 02:48:11;;;;;;;10.20;5.35;;;-1.70;95.30;;;;;;5048540;28;20044;-66
2023/02/06 02:50:39;;;;;;;9.32;4.32;;;-1.70;95.40;;;;;;5049400;28;20090;-67
2023/02/06 02:53:05;;;;;;;13.02;5.20;;;-1.60;95.50;;;;;;5051431;28;20106;-67
2023/02/06 02:55:31;;;;;;;8.02;4.30;;;-1.60;95.70;;;;;;5033538;28;20049;-67
2023/02/06 02:58:10;;;;;;;8.60;4.70;;;-1.40;95.80;;;;;;5029817;28;20891;-67
2023/02/06 03:00:53;;;;;;;6.78;3.65;;;-1.40;95.80;;;;;;5031033;28;20037;-67
2023/02/06 03:03:24;;;;;;;7.50;4.53;;;-1.30;95.70;;;;;;5031524;28;20033;-67
2023/02/06 03:06:09;;;;;;;6.93;3.90;;;-1.20;96.00;;;;;;5033207;28;20044;-67
2023/02/06 03:08:53;;;;;;;8.05;4.05;;;-1.10;96.10;;;;;;5030816;28;20071;-67
2023/02/06 03:11:22;;;;;;;;;;;-1.00;95.80;;;;;;5049987;28;20037;-67
2023/02/06 03:13:53;;;;;;;8.63;3.70;;;-1.00;95.60;;;;;;5053504;28;19912;-67
2023/02/06 03:16:46;;;;;;;11.55;3.38;;;-0.90;95.60;;;;;;5032532;28;20059;-67
2023/02/06 03:19:23;;;;;;;7.53;3.67;;;-0.80;95.60;;;;;;5014577;28;20355;-67
2023/02/06 03:21:49;;;;;;;9.27;3.80;;;-0.70;95.40;;;;;;5020850;28;20436;-69
2023/02/06 03:24:22;;;;;;;5.50;3.75;;;-0.60;95.00;;;;;;5030961;28;20036;-67
2023/02/06 03:26:52;;;;;;;6.55;3.72;;;-0.50;95.00;;;;;;5015365;28;20155;-67
2023/02/06 03:29:19;;;;;;;11.32;3.72;;;-0.40;94.20;;;;;;5050916;28;20637;-67
2023/02/06 03:31:52;;;;;;;6.82;3.08;;;-0.40;94.20;;;;;;5050323;28;20129;-67
2023/02/06 03:34:40;;;;;;;9.32;3.60;;;-0.40;94.10;;;;;;5049360;28;20112;-66
2023/02/06 03:37:06;;;;;;;5.07;3.25;;;-0.30;94.00;;;;;;5050050;28;20052;-66
2023/02/06 03:39:32;;;;;;;7.93;3.20;;;-0.30;93.90;;;;;;5049096;28;20086;-66
2023/02/06 03:42:00;;;;;;;6.03;3.63;;;-0.20;94.00;;;;;;5052653;28;20036;-67
2023/02/06 03:44:34;;;;;;;6.80;3.47;;;-0.10;93.70;;;;;;5050022;28;20029;-69
2023/02/06 03:47:02;;;;;;;7.35;3.42;;;-0.10;93.40;;;;;;5051028;28;20028;-67
2023/02/06 03:49:30;;;;;;;7.85;3.60;;;-0.10;93.50;;;;;;5052264;28;20484;-66
2023/02/06 03:52:07;;;;;;;7.40;3.63;;;0.00;93.40;;;;;;5052136;28;20127;-66
2023/02/06 03:54:38;;;;;;;6.03;3.53;;;0.00;93.20;;;;;;5052683;28;20438;-66
2023/02/06 03:57:06;;;;;;;7.70;3.55;;;-0.10;93.40;;;;;;5048294;28;20480;-67
2023/02/06 03:59:32;;;;;;;6.78;3.38;;;0.00;93.40;;;;;;5050275;28;20064;-67
2023/02/06 04:02:01;;;;;;;8.18;3.25;;;0.00;93.40;;;;;;5048642;28;20025;-67
2023/02/06 04:04:35;;;;;;;8.50;4.05;;;0.10;93.60;;;;;;5048186;28;20092;-67
2023/02/06 04:07:13;;;;;;;6.57;2.97;;;0.10;93.80;;;;;;5049671;28;20024;-67
2023/02/06 04:09:39;;;;;;;4.55;2.97;;;0.10;93.90;;;;;;5046714;28;20039;-67
2023/02/06 04:12:05;;;;;;;7.47;3.03;;;0.10;94.00;;;;;;5050274;28;20029;-67
2023/02/06 04:14:31;;;;;;;4.05;2.35;;;0.20;94.10;;;;;;5049978;28;20032;-67
2023/02/06 04:16:57;;;;;;;4.93;3.00;;;0.20;94.30;;;;;;5051273;28;20029;-67
2023/02/06 04:19:22;;;;;;;7.55;2.97;;;0.30;94.40;;;;;;5051608;28;20037;-66
2023/02/06 04:21:48;;;;;;;5.95;2.90;;;0.30;94.40;;;;;;5046770;28;20043;-66
2023/02/06 04:24:14;;;;;;;10.00;3.55;;;0.30;94.20;;;;;;5048885;28;20100;-67
2023/02/06 04:26:40;;;;;;;7.65;3.55;;;0.40;94.20;;;;;;5048952;28;20024;-67
2023/02/06 04:29:06;;;;;;;6.43;3.05;;;0.50;94.10;;;;;;5047474;28;20032;-66
2023/02/06 04:31:32;;;;;;;8.35;3.53;;;0.50;94.10;;;;;;5049390;28;20077;-66
2023/02/06 04:33:57;;;;;;;7.70;3.17;;;0.60;94.10;;;;;;5047807;28;20060;-66
2023/02/06 04:36:23;;;;;;;5.03;2.63;;;0.50;94.20;;;;;;5030341;28;20033;-66
2023/02/06 04:38:49;;;;;;;10.45;3.85;;;0.50;94.40;;;;;;5050954;28;20056;-66
2023/02/06 04:41:15;;;;;;;7.72;2.90;;;0.50;94.60;;;;;;5046783;28;20063;-67
2023/02/06 04:43:41;;;;;;;5.95;3.15;;;0.60;94.70;;;;;;5049539;28;20032;-66
2023/02/06 04:46:07;;;;;;;7.20;3.63;;;0.60;94.80;;;;;;5047626;28;20124;-67
2023/02/06 04:48:33;;;;;;;7.40;3.50;;;0.60;94.80;;;;;;5053253;28;20032;-67
2023/02/06 04:50:58;;;;;;;4.97;2.97;;;0.60;94.70;;;;;;5053656;28;20040;-67
2023/02/06 04:53:24;;;;;;;6.60;3.33;;;0.60;94.80;;;;;;5054253;28;20095;-67
2023/02/06 04:55:50;;;;;;;7.57;3.40;;;0.60;95.20;;;;;;5053756;28;20259;-67
2023/02/06 04:58:16;;;;;;;5.13;3.35;;;0.60;95.00;;;;;;5053817;28;20036;-67
2023/02/06 05:00:41;;;;;;;6.25;2.83;;;0.60;94.90;;;;;;5052431;28;20020;-67
2023/02/06 05:03:07;;;;;;;6.28;3.30;;;0.60;94.90;;;;;;5046299;28;20035;-67
2023/02/06 05:05:33;;;;;;;5.07;3.22;;;0.60;95.00;;;;;;5051303;28;20284;-66
2023/02/06 05:07:59;;;;;;;4.80;3.40;;;0.60;95.30;;;;;;5054235;28;20443;-67
2023/02/06 05:10:25;;;;;;;7.60;3.05;;;0.70;95.40;;;;;;5051349;28;20090;-67
2023/02/06 05:12:51;;;;;;;5.70;3.08;;;0.70;95.30;;;;;;5054123;28;20107;-67
2023/02/06 05:15:17;;;;;;;7.00;3.45;;;0.70;95.40;;;;;;5053386;28;20037;-67
2023/02/06 05:17:43;;;;;;;6.70;3.35;;;0.70;95.20;;;;;;5052346;28;20028;-67
2023/02/06 05:20:09;;;;;;;8.30;3.55;;;0.70;95.30;;;;;;5050966;28;20645;-67
2023/02/06 05:22:35;;;;;;;7.30;4.18;;;0.70;95.30;;;;;;5051681;28;20538;-67
2023/02/06 05:25:00;;;;;;;5.95;3.35;;;0.70;95.20;;;;;;5048020;28;20025;-67
2023/02/06 05:27:26;;;;;;;8.52;3.70;;;0.70;95.20;;;;;;5034289;28;20385;-67
2023/02/06 05:29:52;;;;;;;7.60;3.00;;;0.70;95.40;;;;;;5050044;28;20108;-67
2023/02/06 05:32:18;;;;;;;6.93;3.42;;;0.80;95.60;;;;;;5049154;28;21071;-67
2023/02/06 05:34:44;;;;;;;7.43;3.50;;;0.70;95.80;;;;;;5047926;28;20028;-67
2023/02/06 05:37:11;;;;;;;6.75;3.05;;;0.70;96.10;;;;;;5033570;28;20041;-67
2023/02/06 05:39:36;;;;;;;5.30;3.17;;;0.70;96.10;;;;;;5050336;28;20751;-67
2023/02/06 05:42:02;;;;;;;7.43;3.45;;;0.70;96.50;;;;;;5048936;28;20032;-67
2023/02/06 05:44:28;;;;;;;9.63;4.53;;;0.70;96.90;;;;;;5047201;28;20040;-67
2023/02/06 05:46:54;;;;;;;6.10;3.60;;;0.80;96.60;;;;;;5049747;28;20025;-67
2023/02/06 05:49:20;;;;;;;8.55;4.30;;;0.80;96.60;;;;;;5040557;28;20036;-67
2023/02/06 05:51:45;;;;;;;7.30;3.78;;;0.80;96.50;;;;;;5044134;28;20036;-67
2023/02/06 05:54:12;;;;;;;6.68;3.72;;;0.80;96.70;;;;;;5030057;28;20072;-67
2023/02/06 05:56:37;;;;;;;8.73;4.00;;;0.80;96.80;;;;;;5046112;28;20135;-67
2023/02/06 05:59:03;;;;;;;7.07;3.92;;;0.80;96.80;;;;;;5044813;28;20488;-67
2023/02/06 06:01:29;;;;;;;8.52;4.18;;;0.80;97.00;;;;;;5049214;28;20954;-67
2023/02/06 06:03:55;;;;;;;11.13;4.10;;;0.80;97.10;;;;;;5049298;28;20699;-67
2023/02/06 06:06:21;;;;;;;9.63;4.20;;;0.80;97.20;;;;;;5047831;28;21033;-67
2023/02/06 06:08:46;;;;;;;9.45;4.53;;;0.90;97.20;;;;;;5051381;28;20036;-67
2023/02/06 06:11:12;;;;;;;10.18;3.95;;;0.90;97.20;;;;;;5042134;28;20043;-67
2023/02/06 06:13:38;;;;;;;5.90;3.85;;;0.90;97.10;;;;;;5050814;28;20032;-67
2023/02/06 06:16:04;;;;;;;6.68;4.50;;;0.90;97.10;;;;;;5049376;28;20056;-66
2023/02/06 06:18:30;;;;;;;8.65;4.45;;;1.00;97.10;;;;;;5051484;28;20162;-67
2023/02/06 06:20:56;;;;;;;6.10;3.85;;;1.00;97.10;;;;;;5038916;28;20105;-67
2023/02/06 06:23:21;;;;;;;7.72;3.95;;;1.00;97.20;;;;;;5045824;28;20021;-67
2023/02/06 06:25:48;;;;;;;5.47;3.65;;;1.00;97.10;;;;;;5050201;28;20497;-66
2023/02/06 06:28:14;;;;;;;8.20;3.85;;;1.10;97.00;;;;;;5025370;28;20468;-66
2023/02/06 06:30:40;;;;;;;7.10;4.15;;;1.10;97.00;;;;;;5044928;28;20120;-67
2023/02/06 06:33:05;;;;;;;7.00;3.90;;;1.10;97.10;;;;;;5046141;28;20037;-66
2023/02/06 06:35:32;;;;;;;7.25;4.57;;;1.10;97.30;;;;;;5047710;28;20032;-67
2023/02/06 06:37:58;;;;;;;9.40;5.18;;;1.10;97.40;;;;;;5043535;28;20063;-67
2023/02/06 06:40:24;;;;;;;10.48;4.82;;;1.20;97.20;;;;;;5051743;28;20032;-67
2023/02/06 06:42:50;;;;;;;11.38;5.22;;;1.20;97.20;;;;;;5042372;28;20481;-67
2023/02/06 06:45:16;;;;;;;10.02;5.82;;;1.30;97.30;;;;;;5038379;28;20044;-66
2023/02/06 06:47:42;;;;;;;24.98;13.23;;;1.30;97.30;;;;;;5046227;28;20048;-67
2023/02/06 06:50:08;;;;;;;50.88;25.55;;;1.30;97.20;;;;;;5044913;28;20075;-66
2023/02/06 06:52:33;;;;;;;29.55;15.65;;;1.30;97.00;;;;;;5045211;28;20050;-67
2023/02/06 06:54:59;;;;;;;39.72;23.55;;;1.30;97.10;;;;;;5047481;28;20033;-66
2023/02/06 06:57:25;;;;;;;47.15;25.17;;;1.40;97.00;;;;;;5047393;28;20049;-67
2023/02/06 06:59:51;;;;;;;79.40;42.30;;;1.40;97.00;;;;;;5044608;28;20790;-66
2023/02/06 07:02:17;;;;;;;27.30;15.63;;;1.40;97.10;;;;;;5048421;28;20520;-66
2023/02/06 07:04:43;;;;;;;13.45;7.88;;;1.40;97.10;;;;;;5045398;28;20025;-64
2023/02/06 07:07:09;;;;;;;11.25;6.03;;;1.40;97.20;;;;;;5035017;28;20032;-66
2023/02/06 07:09:34;;;;;;;8.70;5.70;;;1.40;97.30;;;;;;5040331;28;20401;-66
2023/02/06 07:12:00;;;;;;;20.58;9.18;;;1.40;97.20;;;;;;5023991;28;20078;-67
2023/02/06 07:14:26;;;;;;;12.18;6.82;;;1.40;97.20;;;;;;5040304;28;20033;-68
2023/02/06 07:16:51;;;;;;;9.73;6.13;;;1.40;97.20;;;;;;5042355;28;20634;-67
2023/02/06 07:19:17;;;;;;;11.35;6.47;;;1.40;97.20;;;;;;5049823;28;20033;-67
2023/02/06 07:21:43;;;;;;;12.48;7.43;;;1.40;97.50;;;;;;5045923;28;20036;-68
2023/02/06 07:24:09;;;;;;;13.35;6.72;;;1.40;97.40;;;;;;5039108;28;20041;-67
2023/02/06 07:26:34;;;;;;;14.90;8.43;;;1.40;97.50;;;;;;5041246;28;20074;-65
2023/02/06 07:29:00;;;;;;;19.88;10.60;;;1.40;97.60;;;;;;5045413;28;20032;-67
2023/02/06 07:31:26;;;;;;;17.88;8.32;;;1.40;97.60;;;;;;5042717;28;20552;-66
2023/02/06 07:33:52;;;;;;;16.95;8.23;;;1.40;97.60;;;;;;5045506;28;20032;-67
2023/02/06 07:36:17;;;;;;;15.15;6.60;;;1.50;97.70;;;;;;5044211;28;20029;-67
2023/02/06 07:38:43;;;;;;;9.80;6.20;;;1.40;97.50;;;;;;5042580;28;20503;-67
2023/02/06 07:41:09;;;;;;;9.80;6.35;;;1.50;97.70;;;;;;5044165;28;20287;-68
2023/02/06 07:43:37;;;;;;;12.23;6.22;;;1.50;97.80;;;;;;5050904;28;20860;-67
2023/02/06 07:46:03;;;;;;;11.55;6.70;;;1.50;97.80;;;;;;5043033;28;20111;-66
2023/02/06 07:48:30;;;;;;;13.07;6.65;;;1.60;97.70;;;;;;5045052;28;20029;-67
2023/02/06 07:51:02;;;;;;;10.45;5.82;;;1.60;97.70;;;;;;5029163;28;20116;-67
2023/02/06 07:53:28;;;;;;;9.35;5.43;;;1.70;97.80;;;;;;5039253;28;20029;-67
2023/02/06 07:55:53;;;;;;;20.10;13.27;;;1.70;97.30;;;;;;5046184;28;20106;-63
2023/02/06 07:58:19;;;;;;;16.60;10.43;;;1.80;97.30;;;;;;5044633;28;20030;-65
2023/02/06 08:00:45;;;;;;;14.73;8.20;;;1.80;97.20;;;;;;5045018;28;20024;-68
2023/02/06 08:03:11;;;;;;;24.33;16.33;;;1.80;97.40;;;;;;5044226;28;20059;-67
2023/02/06 08:05:38;;;;;;;23.40;15.10;;;1.80;97.50;;;;;;5025699;28;20043;-68
2023/02/06 08:08:05;;;;;;;17.95;10.88;;;1.80;97.60;;;;;;5046751;28;20044;-67
2023/02/06 08:10:31;;;;;;;21.63;12.60;;;1.80;97.60;;;;;;5035845;28;20659;-70
2023/02/06 08:12:57;;;;;;;36.83;18.88;;;1.80;98.00;;;;;;5034895;28;20036;-67
2023/02/06 08:15:24;;;;;;;46.70;26.05;;;1.80;97.80;;;;;;5044959;28;20472;-67
2023/02/06 08:17:49;;;;;;;38.20;20.77;;;1.80;97.80;;;;;;5042737;28;20025;-68
2023/02/06 08:20:15;;;;;;;31.10;16.48;;;1.80;98.00;;;;;;5038810;28;20044;-67
2023/02/06 08:22:41;;;;;;;24.25;12.48;;;1.90;98.20;;;;;;5049709;28;20737;-67
2023/02/06 08:25:08;;;;;;;18.10;9.60;;;1.90;98.20;;;;;;5044869;28;20021;-67
2023/02/06 08:27:34;;;;;;;13.32;6.90;;;2.00;98.30;;;;;;5045200;28;20040;-67
2023/02/06 08:29:59;;;;;;;16.02;9.30;;;2.10;98.30;;;;;;5037729;28;20710;-67
2023/02/06 08:32:30;;;;;;;13.38;7.80;;;2.10;98.30;;;;;;5041608;28;20794;-67
2023/02/06 08:34:56;;;;;;;10.30;5.85;;;2.20;98.00;;;;;;5040478;28;20033;-66
2023/02/06 08:37:23;;;;;;;10.93;6.25;;;2.30;98.00;;;;;;5041802;28;20044;-68
2023/02/06 08:39:48;;;;;;;12.07;6.43;;;2.30;97.90;;;;;;5046392;28;20040;-69
2023/02/06 08:42:14;;;;;;;11.55;6.70;;;2.30;97.90;;;;;;5040248;28;20033;-68
2023/02/06 08:44:40;;;;;;;11.13;6.80;;;2.30;97.80;;;;;;5045501;28;20036;-67
2023/02/06 08:47:06;;;;;;;11.82;6.55;;;2.30;98.00;;;;;;5026717;28;20374;-68
2023/02/06 08:49:32;;;;;;;12.43;7.65;;;2.30;98.00;;;;;;5044534;28;20025;-67
2023/02/06 08:51:58;;;;;;;12.25;7.32;;;2.40;98.00;;;;;;5039863;28;20028;-67
2023/02/06 08:54:24;;;;;;;11.43;7.03;;;2.40;97.80;;;;;;5040494;28;20039;-68
2023/02/06 08:56:51;;;;;;;11.25;7.20;;;2.40;97.80;;;;;;5043993;28;20037;-72
2023/02/06 08:59:18;;;;;;;15.88;9.75;;;2.50;98.00;;;;;;5040793;28;20033;-68
2023/02/06 09:01:45;;;;;;;20.65;11.65;;;2.50;97.80;;;;;;5052864;28;20036;-66
2023/02/06 09:04:12;;;;;;;21.60;11.25;;;2.60;97.80;;;;;;5045110;28;20029;-68
2023/02/06 09:06:41;;;;;;;18.25;10.80;;;2.60;97.70;;;;;;5036626;28;20031;-68
2023/02/06 09:09:09;;;;;;;15.07;8.68;;;2.60;98.20;;;;;;5043325;28;20036;-68
2023/02/06 09:11:35;;;;;;;14.00;8.13;;;2.60;97.90;;;;;;5044607;28;20445;-68
2023/02/06 09:14:03;;;;;;;16.80;9.07;;;2.70;97.90;;;;;;5042485;28;20765;-68
2023/02/06 09:16:32;;;;;;;18.60;9.35;;;2.70;97.90;;;;;;5041927;28;20056;-64
2023/02/06 09:19:00;;;;;;;17.58;9.98;;;2.70;97.80;;;;;;5041764;28;20033;-71
2023/02/06 09:21:28;;;;;;;20.13;9.07;;;2.70;98.00;;;;;;5043181;28;20031;-68
2023/02/06 09:23:57;;;;;;;14.80;8.48;;;2.80;98.10;;;;;;5045268;28;20042;-75
2023/02/06 09:26:28;;;;;;;15.88;8.55;;;2.80;98.20;;;;;;5054013;28;20263;-68
2023/02/06 09:28:56;;;;;;;15.70;8.70;;;2.90;98.20;;;;;;5044473;28;20032;-67
2023/02/06 09:31:23;;;;;;;16.85;9.38;;;3.00;98.40;;;;;;5043368;28;20091;-68
2023/02/06 09:33:49;;;;;;;18.40;10.05;;;3.00;98.40;;;;;;5048919;28;20048;-68
2023/02/06 09:36:17;;;;;;;23.67;13.95;;;3.00;98.30;;;;;;5046146;28;20041;-68
2023/02/06 09:38:49;;;;;;;20.15;12.00;;;3.10;98.30;;;;;;5042537;28;20048;-69
2023/02/06 09:41:36;;;;;;;14.50;9.27;;;3.10;98.20;;;;;;5039775;28;20107;-68
2023/02/06 09:44:20;;;;;;;13.77;9.60;;;3.20;98.30;;;;;;5045242;28;20081;-68
2023/02/06 09:47:01;;;;;;;24.17;9.63;;;3.20;98.30;;;;;;5043663;28;20043;-67
2023/02/06 09:49:39;;;;;;;17.63;8.90;;;3.30;98.50;;;;;;5046152;28;20135;-68
2023/02/06 09:52:30;;;;;;;13.40;7.85;;;3.30;98.30;;;;;;5046879;28;20035;-68
2023/02/06 09:55:30;;;;;;;15.35;8.57;;;3.30;98.30;;;;;;5043933;28;20036;-67
2023/02/06 09:58:14;;;;;;;12.27;7.47;;;3.40;98.30;;;;;;5046267;28;20046;-67
2023/02/06 10:00:52;;;;;;;20.85;8.00;;;3.40;98.30;;;;;;5048218;28;20036;-69
2023/02/06 10:03:24;;;;;;;17.15;8.05;;;3.50;98.10;;;;;;5043583;28;20877;-68
2023/02/06 10:06:10;;;;;;;15.93;9.18;;;3.50;98.00;;;;;;5047329;28;20064;-68
2023/02/06 10:09:04;;;;;;;12.38;7.55;;;3.60;98.30;;;;;;5043318;28;20026;-67
2023/02/06 10:11:33;;;;;;;12.05;7.45;;;3.60;98.00;;;;;;5034957;28;20160;-68
2023/02/06 10:14:28;;;;;;;16.27;7.90;;;3.70;98.00;;;;;;5043830;28;20035;-68
2023/02/06 10:17:20;;;;;;;17.10;8.25;;;3.80;97.80;;;;;;5030079;28;20064;-68
2023/02/06 10:19:50;;;;;;;17.58;8.38;;;3.90;97.70;;;;;;5037808;28;20412;-68
2023/02/06 10:22:19;;;;;;;16.20;8.02;;;4.10;97.30;;;;;;5044530;28;20044;-68
2023/02/06 10:25:00;;;;;;;14.00;7.53;;;4.10;97.10;;;;;;5042327;28;20039;-69
2023/02/06 10:27:25;;;;;;;11.85;7.13;;;4.30;96.80;;;;;;5042340;28;20083;-69
2023/02/06 10:29:51;;;;;;;15.55;8.00;;;4.30;96.60;;;;;;5046691;28;20032;-67
2023/02/06 10:32:55;;;;;;;15.50;8.15;;;4.30;96.50;;;;;;5039543;28;20147;-67
2023/02/06 10:35:27;;;;;;;17.33;7.82;;;4.30;96.40;;;;;;5046434;28;20028;-67
2023/02/06 10:38:19;;;;;;;16.35;7.50;;;4.30;96.40;;;;;;5048071;28;20028;-67
2023/02/06 10:40:45;;;;;;;14.48;7.00;;;4.30;96.30;;;;;;5043242;28;20121;-68
2023/02/06 10:43:52;;;;;;;13.00;6.80;;;4.20;96.10;;;;;;5039341;28;20471;-63
2023/02/06 10:46:35;;;;;;;12.88;6.97;;;4.10;96.30;;;;;;5045303;28;20034;-67
2023/02/06 10:49:27;;;;;;;15.30;6.95;;;4.00;96.50;;;;;;5037951;28;20032;-68
2023/02/06 10:51:57;;;;;;;12.63;6.82;;;4.00;96.60;;;;;;5040861;28;20032;-68
2023/02/06 10:54:38;;;;;;;15.30;7.40;;;4.00;96.60;;;;;;5042606;28;20029;-68
2023/02/06 10:57:17;;;;;;;11.20;6.50;;;4.00;96.60;;;;;;5046196;28;20040;-65
2023/02/06 10:59:46;;;;;;;11.60;6.47;;;4.00;96.20;;;;;;5044917;28;20032;-67
2023/02/06 11:02:41;;;;;;;12.00;6.53;;;4.00;95.90;;;;;;5042219;28;20198;-67
2023/02/06 11:05:18;;;;;;;16.67;6.90;;;4.10;95.70;;;;;;5039869;28;20469;-67
2023/02/06 11:08:09;;;;;;;12.23;6.13;;;4.10;95.80;;;;;;5034017;28;20745;-67
2023/02/06 11:10:35;;;;;;;11.45;6.25;;;4.10;95.80;;;;;;5045383;28;20040;-67
2023/02/06 11:13:20;;;;;;;14.27;6.38;;;4.10;95.40;;;;;;5044400;28;20449;-63
2023/02/06 11:16:03;;;;;;;12.85;6.72;;;4.10;95.50;;;;;;5045286;28;20028;-67
2023/02/06 11:18:41;;;;;;;11.57;6.05;;;4.20;95.30;;;;;;5042963;28;20036;-64
2023/02/06 11:21:09;;;;;;;12.45;6.68;;;4.10;95.30;;;;;;5046484;28;20506;-66
2023/02/06 11:23:35;;;;;;;12.52;6.75;;;4.00;95.30;;;;;;5042688;28;20025;-65
2023/02/06 11:26:04;;;;;;;12.88;6.25;;;3.90;94.80;;;;;;5044953;28;20398;-63
2023/02/06 11:28:33;;;;;;;12.38;5.72;;;3.80;94.80;;;;;;5024838;28;20021;-63
2023/02/06 11:31:05;;;;;;;10.38;5.70;;;3.80;95.10;;;;;;5041945;28;20109;-64
2023/02/06 11:33:35;;;;;;;10.00;5.75;;;3.70;95.10;;;;;;5042984;28;20025;-64
2023/02/06 11:36:03;;;;;;;9.30;6.10;;;3.80;95.30;;;;;;5047006;28;20342;-64
2023/02/06 11:38:30;;;;;;;12.30;6.10;;;3.80;95.00;;;;;;5044617;28;20087;-64
2023/02/06 11:41:17;;;;;;;12.20;6.18;;;3.80;95.10;;;;;;5048756;28;20033;-64
2023/02/06 11:43:42;;;;;;;11.32;5.45;;;3.90;95.20;;;;;;5044650;28;20032;-62
2023/02/06 11:46:23;;;;;;;12.70;6.80;;;4.00;95.20;;;;;;5031120;28;20447;-64
2023/02/06 11:48:57;;;;;;;12.43;6.60;;;4.10;95.10;;;;;;5044228;28;20031;-64
2023/02/06 11:51:23;;;;;;;15.02;6.85;;;4.20;94.80;;;;;;5025006;28;20056;-64
2023/02/06 11:53:56;;;;;;;12.75;6.30;;;4.10;94.40;;;;;;5048483;28;20089;-64
2023/02/06 11:56:22;;;;;;;11.27;6.10;;;4.10;94.30;;;;;;5039825;28;20029;-65
2023/02/06 11:59:06;;;;;;;12.43;7.20;;;4.10;94.30;;;;;;5045334;28;20028;-64
2023/02/06 12:01:43;;;;;;;13.65;6.43;;;4.10;94.30;;;;;;5040385;28;20848;-65
2023/02/06 12:04:39;;;;;;;13.63;7.22;;;4.20;94.00;;;;;;5038410;28;20044;-65
2023/02/06 12:07:34;;;;;;;12.43;6.40;;;4.10;94.00;;;;;;5034553;28;20040;-65
2023/02/06 12:10:02;;;;;;;9.93;6.50;;;4.10;94.10;;;;;;5019766;28;20283;-64
2023/02/06 12:12:31;;;;;;;16.10;7.15;;;4.10;94.10;;;;;;5038758;28;20024;-65
2023/02/06 12:15:02;;;;;;;15.38;7.88;;;4.10;93.80;;;;;;5040180;28;20032;-65
2023/02/06 12:17:40;;;;;;;11.75;6.90;;;4.00;93.90;;;;;;5043124;28;20060;-65
2023/02/06 12:20:17;;;;;;;13.93;7.97;;;4.00;94.20;;;;;;5040731;28;20029;-64
2023/02/06 12:22:50;;;;;;;12.95;7.68;;;3.90;94.30;;;;;;5038442;28;20104;-65
2023/02/06 12:25:24;;;;;;;13.02;7.32;;;3.90;94.50;;;;;;5036061;28;20021;-65
2023/02/06 12:27:55;;;;;;;17.05;7.93;;;3.90;94.90;;;;;;5044090;28;20480;-65
2023/02/06 12:30:36;;;;;;;15.45;7.13;;;3.90;94.40;;;;;;5040066;28;20170;-65
2023/02/06 12:33:14;;;;;;;14.50;7.68;;;3.90;94.20;;;;;;5042398;28;20087;-65
2023/02/06 12:35:48;;;;;;;11.55;7.10;;;3.90;94.30;;;;;;5040172;28;20039;-65
2023/02/06 12:38:44;;;;;;;12.13;7.35;;;3.90;94.20;;;;;;5044390;28;20041;-65
2023/02/06 12:41:20;;;;;;;14.70;7.53;;;3.90;94.20;;;;;;5042248;28;20523;-65
2023/02/06 12:43:55;;;;;;;18.25;7.68;;;4.00;94.30;;;;;;5047483;28;20084;-65
2023/02/06 12:46:24;;;;;;;16.23;8.32;;;3.90;94.20;;;;;;5023000;28;20025;-65
2023/02/06 12:49:28;;;;;;;17.45;7.40;;;3.90;94.10;;;;;;5025217;28;20030;-64
2023/02/06 12:52:23;;;;;;;14.68;8.10;;;4.00;94.40;;;;;;5042215;28;20041;-65
2023/02/06 12:55:16;;;;;;;17.75;8.02;;;4.00;94.00;;;;;;5040395;28;20076;-65
2023/02/06 12:57:42;;;;;;;18.38;8.48;;;3.90;93.80;;;;;;5042616;28;20926;-65
2023/02/06 13:00:20;;;;;;;21.00;8.85;;;3.90;93.90;;;;;;5043432;28;20040;-65
2023/02/06 13:03:21;;;;;;;13.05;7.75;;;3.90;94.00;;;;;;5047076;28;20507;-65
2023/02/06 13:06:01;;;;;;;17.23;8.13;;;3.90;94.00;;;;;;5042660;28;20024;-65
2023/02/06 13:08:38;;;;;;;15.32;8.45;;;3.80;94.10;;;;;;5050252;28;20068;-65